createdAt,value
2018-08-20T00:04:11.137Z,23.49
2018-08-20T00:09:14.640Z,23.40
2018-08-20T00:14:20.580Z,23.34
2018-08-20T00:19:24.103Z,23.23
2018-08-20T00:24:27.761Z,23.14
2018-08-20T00:29:31.692Z,23.12
2018-08-20T00:34:35.235Z,23.06
2018-08-20T00:39:38.662Z,22.97
2018-08-20T00:44:42.210Z,22.87
2018-08-20T00:49:45.705Z,22.72
2018-08-20T00:54:49.137Z,22.60
2018-08-20T00:59:52.736Z,22.53
2018-08-20T01:04:56.360Z,22.43
2018-08-20T01:10:00.009Z,22.37
2018-08-20T01:15:06.619Z,22.38
2018-08-20T01:20:10.126Z,22.43
2018-08-20T01:25:13.661Z,22.42
2018-08-20T01:30:17.255Z,22.40
2018-08-20T01:35:28.401Z,22.31
2018-08-20T01:40:31.894Z,22.18
2018-08-20T01:45:35.506Z,22.05
2018-08-20T01:50:39.077Z,21.97
2018-08-20T01:55:42.593Z,21.95
2018-08-20T02:00:46.068Z,21.91
2018-08-20T02:05:49.633Z,21.87
2018-08-20T02:10:53.129Z,21.77
2018-08-20T02:15:56.673Z,21.69
2018-08-20T02:21:00.230Z,21.63
2018-08-20T02:26:03.805Z,21.61
2018-08-20T02:31:07.553Z,21.54
2018-08-20T02:36:11.124Z,21.44
2018-08-20T02:41:14.592Z,21.36
2018-08-20T02:46:28.002Z,21.28
2018-08-20T02:51:31.517Z,21.22
2018-08-20T02:56:35.055Z,21.15
2018-08-20T03:01:38.891Z,21.10
2018-08-20T03:06:42.400Z,20.99
2018-08-20T03:11:45.957Z,20.87
2018-08-20T03:16:49.482Z,20.81
2018-08-20T03:21:53.014Z,20.78
2018-08-20T03:26:57.441Z,20.72
2018-08-20T03:32:01.371Z,20.66
2018-08-20T03:37:04.955Z,20.63
2018-08-20T03:42:08.517Z,20.58
2018-08-20T03:47:12.060Z,20.51
2018-08-20T03:52:15.736Z,20.44
2018-08-20T03:57:19.267Z,20.39
2018-08-20T04:02:22.814Z,20.32
2018-08-20T04:07:26.337Z,20.23
2018-08-20T04:12:29.808Z,20.17
2018-08-20T04:17:33.270Z,20.14
2018-08-20T04:22:36.864Z,20.12
2018-08-20T04:27:40.425Z,20.09
2018-08-20T04:32:44.013Z,20.07
2018-08-20T04:37:47.551Z,20.09
2018-08-20T04:42:51.032Z,20.15
2018-08-20T04:47:54.625Z,20.22
2018-08-20T04:53:04.628Z,20.28
2018-08-20T04:58:08.218Z,20.33
2018-08-20T05:03:15.929Z,20.41
2018-08-20T05:08:19.452Z,20.48
2018-08-20T05:13:22.966Z,20.49
2018-08-20T05:18:26.585Z,20.58
2018-08-20T05:23:30.130Z,20.70
2018-08-20T05:28:33.623Z,20.72
2018-08-20T05:33:37.164Z,20.75
2018-08-20T05:38:40.766Z,20.88
2018-08-20T05:43:44.308Z,20.98
2018-08-20T05:48:47.870Z,21.10
2018-08-20T05:53:51.398Z,21.20
2018-08-20T05:58:54.962Z,21.09
2018-08-20T06:03:58.506Z,21.10
2018-08-20T06:09:02.025Z,21.29
2018-08-20T06:14:05.906Z,21.32
2018-08-20T06:19:09.454Z,21.41
2018-08-20T06:24:13.101Z,21.54
2018-08-20T06:29:16.597Z,21.76
2018-08-20T06:34:20.102Z,21.90
2018-08-20T06:39:23.641Z,22.04
2018-08-20T06:44:27.179Z,22.19
2018-08-20T06:49:30.722Z,22.32
2018-08-20T06:54:34.316Z,22.44
2018-08-20T06:59:37.810Z,22.48
2018-08-20T07:04:41.766Z,22.55
2018-08-20T07:09:45.334Z,22.60
2018-08-20T07:14:48.979Z,22.73
2018-08-20T07:19:52.560Z,22.85
2018-08-20T07:24:56.209Z,22.93
2018-08-20T07:29:59.727Z,23.07
2018-08-20T07:35:04.039Z,23.15
2018-08-20T07:40:08.293Z,23.28
2018-08-20T07:45:11.897Z,23.40
2018-08-20T07:50:15.501Z,23.48
2018-08-20T07:55:19.123Z,23.57
2018-08-20T08:00:22.749Z,23.58
2018-08-20T08:05:26.268Z,23.71
2018-08-20T08:10:29.837Z,23.84
2018-08-20T08:15:33.440Z,23.92
2018-08-20T08:20:37.178Z,24.01
2018-08-20T08:25:40.720Z,24.08
2018-08-20T08:30:44.335Z,24.22
2018-08-20T08:35:47.858Z,24.30
2018-08-20T08:40:51.397Z,24.51
2018-08-20T08:45:54.966Z,24.55
2018-08-20T08:50:58.547Z,24.88
2018-08-20T08:56:02.105Z,24.92
2018-08-20T09:01:05.655Z,24.80
2018-08-20T09:06:09.174Z,24.70
2018-08-20T09:11:12.651Z,24.65
2018-08-20T09:16:16.142Z,25.22
2018-08-20T09:21:19.777Z,25.54
2018-08-20T09:26:23.268Z,25.57
2018-08-20T09:31:26.843Z,25.74
2018-08-20T09:36:30.344Z,25.61
2018-08-20T09:41:33.890Z,25.84
2018-08-20T09:46:37.493Z,25.62
2018-08-20T09:51:41.004Z,25.44
2018-08-20T09:56:44.522Z,25.31
2018-08-20T10:01:48.082Z,25.57
2018-08-20T10:06:51.572Z,25.93
2018-08-20T10:11:55.185Z,26.41
2018-08-20T10:16:58.761Z,26.38
2018-08-20T10:22:02.313Z,26.02
2018-08-20T10:27:05.926Z,25.73
2018-08-20T10:32:09.511Z,25.51
2018-08-20T10:37:12.972Z,25.22
2018-08-20T10:42:16.549Z,25.06
2018-08-20T10:47:20.190Z,24.85
2018-08-20T10:52:23.681Z,24.93
2018-08-20T10:57:27.315Z,25.09
2018-08-20T11:02:30.862Z,25.02
2018-08-20T11:07:34.501Z,25.10
2018-08-20T11:12:38.394Z,25.77
2018-08-20T11:17:41.959Z,26.58
2018-08-20T11:22:45.769Z,27.32
2018-08-20T11:27:55.833Z,27.55
2018-08-20T11:32:59.374Z,27.98
2018-08-20T11:38:02.898Z,28.63
2018-08-20T11:43:06.930Z,28.89
2018-08-20T11:48:10.497Z,28.35
2018-08-20T11:53:13.986Z,28.59
2018-08-20T11:58:17.593Z,28.41
2018-08-20T12:03:21.065Z,33.71
2018-08-20T12:08:24.602Z,34.13
2018-08-20T12:13:28.110Z,32.75
2018-08-20T12:18:31.605Z,33.85
2018-08-20T12:23:35.148Z,31.60
2018-08-20T12:28:38.691Z,35.04
2018-08-20T12:33:42.199Z,35.63
2018-08-20T12:38:45.627Z,31.14
2018-08-20T12:43:49.089Z,29.38
2018-08-20T12:48:53.060Z,27.97
2018-08-20T12:53:56.575Z,27.07
2018-08-20T12:59:00.165Z,26.61
2018-08-20T13:04:03.673Z,26.40
2018-08-20T13:09:08.213Z,26.45
2018-08-20T13:14:11.718Z,26.72
2018-08-20T13:19:15.286Z,27.45
2018-08-20T13:24:18.887Z,27.20
2018-08-20T13:29:22.477Z,26.72
2018-08-20T13:34:25.930Z,26.52
2018-08-20T13:39:29.478Z,26.40
2018-08-20T13:44:32.957Z,26.29
2018-08-20T13:49:37.364Z,26.23
2018-08-20T13:54:40.873Z,26.18
2018-08-20T13:59:44.474Z,26.21
2018-08-20T14:04:47.999Z,26.28
2018-08-20T14:09:51.617Z,26.30
2018-08-20T14:14:55.526Z,26.16
2018-08-20T14:20:00.004Z,26.12
2018-08-20T14:25:03.702Z,26.05
2018-08-20T14:30:16.580Z,25.91
2018-08-20T14:35:20.328Z,25.89
2018-08-20T14:40:23.940Z,25.83
2018-08-20T14:45:31.585Z,25.79
2018-08-20T14:50:35.188Z,25.71
2018-08-20T14:55:38.802Z,25.71
2018-08-20T15:00:42.646Z,25.71
2018-08-20T15:05:46.212Z,25.67
2018-08-20T15:10:49.654Z,25.66
2018-08-20T15:15:53.299Z,25.65
2018-08-20T15:20:57.309Z,25.61
2018-08-20T15:26:00.813Z,25.49
2018-08-20T15:31:04.602Z,25.45
2018-08-20T15:36:08.162Z,25.57
2018-08-20T15:41:11.813Z,25.56
2018-08-20T15:46:15.489Z,25.53
2018-08-20T15:51:18.891Z,25.60
2018-08-20T15:56:22.671Z,25.78
2018-08-20T16:01:26.165Z,25.74
2018-08-20T16:06:29.631Z,25.54
2018-08-20T16:11:33.337Z,25.36
2018-08-20T16:16:36.889Z,25.41
2018-08-20T16:21:40.413Z,25.39
2018-08-20T16:26:43.952Z,25.26
2018-08-20T16:31:47.575Z,25.18
2018-08-20T16:36:51.337Z,25.22
2018-08-20T16:41:54.849Z,25.18
2018-08-20T16:46:58.541Z,25.10
2018-08-20T16:52:08.459Z,25.08
2018-08-20T16:57:12.109Z,25.07
2018-08-20T17:02:19.954Z,25.05
2018-08-20T17:07:23.459Z,25.04
2018-08-20T17:12:26.929Z,25.02
2018-08-20T17:17:30.484Z,24.99
2018-08-20T17:22:34.095Z,24.95
2018-08-20T17:27:37.590Z,24.89
2018-08-20T17:32:41.102Z,24.82
2018-08-20T17:37:45.229Z,24.76
2018-08-20T17:42:48.813Z,24.68
2018-08-20T17:47:52.464Z,24.61
2018-08-20T17:52:56.462Z,24.55
2018-08-20T17:57:59.964Z,24.46
2018-08-20T18:03:03.543Z,24.43
2018-08-20T18:08:07.133Z,24.37
2018-08-20T18:13:10.799Z,24.32
2018-08-20T18:18:14.496Z,24.25
2018-08-20T18:23:18.143Z,24.20
2018-08-20T18:28:21.820Z,24.19
2018-08-20T18:33:26.607Z,24.16
2018-08-20T18:38:36.987Z,24.15
2018-08-20T18:43:40.630Z,24.10
2018-08-20T18:48:44.188Z,24.04
2018-08-20T18:53:47.821Z,24.09
2018-08-20T18:58:51.440Z,24.06
2018-08-20T19:03:55.854Z,24.05
2018-08-20T19:08:59.395Z,24.02
2018-08-20T19:14:07.367Z,23.98
2018-08-20T19:19:11.122Z,23.99
2018-08-20T19:24:14.688Z,23.97
2018-08-20T19:29:27.051Z,23.97
2018-08-20T19:34:30.633Z,23.89
2018-08-20T19:39:34.699Z,23.84
2018-08-20T19:44:38.406Z,23.81
2018-08-20T19:49:41.985Z,23.83
2018-08-20T19:54:47.005Z,23.83
2018-08-20T19:59:51.317Z,23.81
2018-08-20T20:04:59.067Z,23.79
2018-08-20T20:10:07.733Z,23.75
2018-08-20T20:15:12.022Z,23.70
2018-08-20T20:20:15.622Z,23.70
2018-08-20T20:25:19.505Z,23.60
2018-08-20T20:30:23.091Z,23.63
2018-08-20T20:35:26.562Z,23.52
2018-08-20T20:40:30.255Z,23.46
2018-08-20T20:45:33.852Z,23.48
2018-08-20T20:50:37.502Z,23.48
2018-08-20T20:55:41.075Z,23.49
2018-08-20T21:00:44.779Z,23.53
2018-08-20T21:05:48.371Z,23.49
2018-08-20T21:10:52.037Z,23.55
2018-08-20T21:16:00.978Z,23.54
2018-08-20T21:21:04.561Z,23.53
2018-08-20T21:26:08.888Z,23.52
2018-08-20T21:31:13.557Z,23.48
2018-08-20T21:36:17.391Z,23.48
2018-08-20T21:41:27.297Z,23.41
2018-08-20T21:46:30.870Z,23.36
2018-08-20T21:51:41.463Z,23.30
2018-08-20T22:06:27.656Z,23.23
2018-08-20T22:11:31.222Z,23.26
2018-08-20T22:16:34.875Z,23.25
2018-08-20T22:21:38.502Z,23.22
2018-08-20T22:26:47.095Z,23.19
2018-08-20T22:31:56.608Z,23.18
2018-08-20T22:37:05.850Z,23.12
2018-08-20T22:42:09.560Z,23.10
2018-08-20T22:47:13.327Z,23.06
2018-08-20T22:52:21.105Z,23.07
2018-08-20T22:57:24.833Z,23.01
2018-08-20T23:02:28.346Z,22.95
2018-08-20T23:07:31.842Z,22.92
2018-08-20T23:12:39.501Z,22.88
2018-08-20T23:17:43.077Z,22.81
2018-08-20T23:22:49.409Z,22.77
2018-08-20T23:27:52.944Z,22.78
2018-08-20T23:32:56.478Z,22.74
2018-08-20T23:37:59.962Z,22.69
2018-08-20T23:43:03.491Z,22.70
2018-08-20T23:48:06.986Z,22.71
2018-08-20T23:53:10.550Z,22.73
2018-08-20T23:58:14.141Z,22.70
